createdAt,value
2023-04-29T00:01:12.352Z,12.38
2023-04-29T00:03:40.814Z,8.52
2023-04-29T00:06:11.705Z,10.75
2023-04-29T00:08:40.929Z,11.23
2023-04-29T00:11:11.479Z,9.50
2023-04-29T00:13:41.245Z,8.15
2023-04-29T00:16:10.554Z,9.15
2023-04-29T00:18:39.075Z,10.60
2023-04-29T00:21:08.172Z,8.18
2023-04-29T00:23:36.668Z,8.82
2023-04-29T00:26:05.668Z,11.63
2023-04-29T00:28:34.179Z,8.30
2023-04-29T00:31:03.096Z,8.93
2023-04-29T00:33:31.822Z,8.07
2023-04-29T00:36:00.688Z,8.52
2023-04-29T00:38:29.356Z,9.77
2023-04-29T00:40:58.170Z,8.98
2023-04-29T00:43:26.617Z,8.27
2023-04-29T00:45:55.632Z,9.02
2023-04-29T00:48:24.141Z,8.70
2023-04-29T00:50:53.383Z,12.40
2023-04-29T00:53:23.489Z,8.82
2023-04-29T00:55:52.598Z,10.95
2023-04-29T00:58:22.401Z,11.75
2023-04-29T01:00:51.192Z,10.05
2023-04-29T01:03:19.702Z,10.85
2023-04-29T01:05:48.592Z,8.65
2023-04-29T01:08:48.386Z,14.35
2023-04-29T01:11:17.199Z,10.73
2023-04-29T01:13:55.640Z,11.07
2023-04-29T01:16:30.062Z,11.07
2023-04-29T01:19:07.659Z,8.93
2023-04-29T01:21:49.171Z,13.27
2023-04-29T01:24:17.697Z,10.45
2023-04-29T01:26:59.696Z,9.88
2023-04-29T01:30:13.579Z,12.55
2023-04-29T01:33:30.928Z,11.77
2023-04-29T01:36:02.859Z,12.85
2023-04-29T01:41:43.809Z,10.18
2023-04-29T01:44:22.560Z,11.88
2023-04-29T01:46:54.676Z,12.00
2023-04-29T01:49:30.061Z,10.60
2023-04-29T01:51:58.629Z,11.40
2023-04-29T01:54:27.881Z,9.70
2023-04-29T01:56:59.169Z,11.15
2023-04-29T01:59:32.551Z,9.88
2023-04-29T02:02:15.673Z,9.90
2023-04-29T02:04:54.355Z,16.00
2023-04-29T02:07:23.000Z,9.50
2023-04-29T02:09:52.138Z,9.98
2023-04-29T02:12:21.365Z,10.93
2023-04-29T02:14:53.995Z,12.77
2023-04-29T02:17:22.629Z,13.93
2023-04-29T02:19:51.675Z,16.25
2023-04-29T02:22:20.635Z,12.30
2023-04-29T02:24:49.473Z,13.75
2023-04-29T02:27:18.333Z,12.23
2023-04-29T02:29:47.433Z,13.98
2023-04-29T02:32:16.136Z,10.48
2023-04-29T02:34:45.661Z,13.05
2023-04-29T02:37:14.387Z,13.05
2023-04-29T02:39:43.403Z,12.07
2023-04-29T02:42:14.096Z,11.20
2023-04-29T02:44:42.875Z,16.10
2023-04-29T02:47:11.455Z,17.40
2023-04-29T02:49:40.637Z,12.63
2023-04-29T02:52:09.297Z,12.30
2023-04-29T02:54:38.547Z,15.10
2023-04-29T02:57:08.141Z,11.60
2023-04-29T02:59:37.197Z,12.30
2023-04-29T03:02:05.724Z,14.77
2023-04-29T03:04:34.633Z,12.38
2023-04-29T03:07:03.155Z,14.50
2023-04-29T03:09:32.176Z,13.63
2023-04-29T03:12:01.617Z,15.23
2023-04-29T03:14:30.472Z,16.98
2023-04-29T03:17:00.386Z,13.88
2023-04-29T03:19:29.635Z,15.63
2023-04-29T03:21:58.167Z,15.95
2023-04-29T03:24:27.481Z,11.68
2023-04-29T03:26:56.227Z,11.60
2023-04-29T03:29:25.218Z,9.60
2023-04-29T03:31:54.690Z,14.25
2023-04-29T03:34:23.783Z,12.18
2023-04-29T03:37:06.320Z,15.25
2023-04-29T03:39:35.196Z,14.75
2023-04-29T03:42:04.800Z,16.17
2023-04-29T03:44:33.660Z,12.10
2023-04-29T03:47:02.172Z,20.02
2023-04-29T03:49:31.135Z,15.48
2023-04-29T03:51:59.633Z,19.48
2023-04-29T03:54:28.412Z,12.82
2023-04-29T03:56:56.932Z,12.27
2023-04-29T03:59:26.447Z,13.35
2023-04-29T04:01:55.054Z,15.45
2023-04-29T04:04:24.340Z,11.38
2023-04-29T04:06:53.061Z,10.55
2023-04-29T04:09:26.414Z,12.50
2023-04-29T04:11:54.875Z,15.00
2023-04-29T04:14:23.726Z,11.52
2023-04-29T04:16:52.441Z,11.10
2023-04-29T04:19:21.374Z,13.38
2023-04-29T04:21:49.801Z,10.18
2023-04-29T04:24:20.103Z,12.57
2023-04-29T04:26:49.534Z,12.18
2023-04-29T04:29:29.477Z,14.77
2023-04-29T04:32:01.341Z,13.05
2023-04-29T04:34:31.752Z,16.02
2023-04-29T04:37:02.305Z,13.20
2023-04-29T04:39:34.353Z,14.80
2023-04-29T04:42:03.986Z,15.52
2023-04-29T04:44:34.883Z,16.25
2023-04-29T04:47:08.521Z,14.23
2023-04-29T04:49:53.355Z,13.23
2023-04-29T04:52:23.941Z,21.33
2023-04-29T04:55:04.512Z,17.15
2023-04-29T04:57:36.880Z,18.50
2023-04-29T05:00:07.131Z,20.38
2023-04-29T05:02:36.216Z,14.65
2023-04-29T05:05:05.952Z,18.73
2023-04-29T05:07:37.566Z,21.50
2023-04-29T05:10:08.796Z,18.83
2023-04-29T05:12:45.060Z,19.05
2023-04-29T05:15:15.209Z,15.68
2023-04-29T05:17:45.633Z,19.77
2023-04-29T05:20:14.694Z,15.77
2023-04-29T05:22:43.171Z,16.38
2023-04-29T05:25:11.932Z,15.90
2023-04-29T05:27:40.669Z,15.45
2023-04-29T05:30:13.753Z,18.17
2023-04-29T05:32:42.253Z,13.80
2023-04-29T05:35:15.860Z,17.80
2023-04-29T05:37:45.478Z,19.25
2023-04-29T05:40:26.133Z,14.13
2023-04-29T05:43:02.117Z,19.55
2023-04-29T05:45:30.960Z,18.00
2023-04-29T05:47:59.444Z,14.48
2023-04-29T05:50:28.201Z,21.13
2023-04-29T05:52:57.052Z,19.30
2023-04-29T05:55:27.598Z,15.75
2023-04-29T05:57:57.082Z,16.17
2023-04-29T06:00:26.000Z,16.63
2023-04-29T06:03:00.481Z,18.30
2023-04-29T06:05:30.340Z,18.50
2023-04-29T06:08:19.862Z,25.48
2023-04-29T06:10:52.711Z,16.63
2023-04-29T06:13:21.674Z,22.67
2023-04-29T06:15:51.045Z,21.23
2023-04-29T06:18:21.286Z,18.17
2023-04-29T06:20:49.989Z,17.40
2023-04-29T06:23:18.619Z,19.75
2023-04-29T06:25:47.485Z,19.23
2023-04-29T06:28:16.700Z,21.85
2023-04-29T06:30:46.947Z,17.52
2023-04-29T06:33:16.065Z,17.13
2023-04-29T06:35:45.037Z,15.57
2023-04-29T06:38:24.217Z,18.75
2023-04-29T06:41:11.382Z,20.73
2023-04-29T06:44:05.924Z,22.70
2023-04-29T06:46:50.207Z,18.48
2023-04-29T06:49:29.353Z,19.25
2023-04-29T06:51:59.894Z,19.67
2023-04-29T06:54:28.910Z,22.75
2023-04-29T06:56:58.532Z,17.80
2023-04-29T06:59:27.055Z,20.65
2023-04-29T07:01:56.185Z,15.60
2023-04-29T07:04:24.951Z,15.75
2023-04-29T07:06:54.702Z,17.35
2023-04-29T07:09:23.982Z,19.15
2023-04-29T07:11:52.707Z,21.52
2023-04-29T07:14:23.176Z,17.42
2023-04-29T07:16:55.587Z,17.67
2023-04-29T07:19:24.043Z,19.03
2023-04-29T07:21:52.785Z,19.33
2023-04-29T07:24:21.251Z,22.92
2023-04-29T07:26:50.744Z,17.50
2023-04-29T07:29:19.477Z,27.55
2023-04-29T07:31:48.387Z,16.33
2023-04-29T07:34:17.045Z,14.52
2023-04-29T07:36:46.154Z,17.08
2023-04-29T07:39:15.753Z,18.63
2023-04-29T07:41:49.462Z,22.15
2023-04-29T07:44:17.861Z,15.57
2023-04-29T07:46:47.037Z,19.65
2023-04-29T07:49:15.687Z,16.20
2023-04-29T07:51:44.546Z,20.85
2023-04-29T07:54:13.078Z,15.18
2023-04-29T07:56:42.266Z,19.63
2023-04-29T07:59:10.843Z,20.10
2023-04-29T08:01:42.408Z,18.98
2023-04-29T08:04:11.036Z,19.00
2023-04-29T08:06:50.576Z,19.13
2023-04-29T08:09:18.974Z,18.38
2023-04-29T08:11:47.828Z,17.42
2023-04-29T08:14:16.419Z,18.08
2023-04-29T08:16:45.218Z,20.80
2023-04-29T08:19:13.751Z,19.23
2023-04-29T08:21:42.939Z,19.27
2023-04-29T08:24:11.492Z,20.45
2023-04-29T08:26:43.120Z,16.00
2023-04-29T08:29:11.549Z,19.88
2023-04-29T08:31:41.435Z,19.90
2023-04-29T08:34:09.907Z,15.75
2023-04-29T08:36:38.932Z,14.77
2023-04-29T08:39:07.282Z,22.00
2023-04-29T08:41:37.858Z,12.80
2023-04-29T08:44:06.380Z,14.43
2023-04-29T08:46:35.371Z,19.35
2023-04-29T08:49:04.538Z,14.25
2023-04-29T08:51:35.018Z,18.77
2023-04-29T08:54:03.500Z,16.33
2023-04-29T08:56:32.252Z,17.42
2023-04-29T08:59:02.103Z,15.32
2023-04-29T09:01:31.315Z,17.58
2023-04-29T09:04:10.664Z,13.35
2023-04-29T09:06:39.468Z,16.45
2023-04-29T09:09:08.000Z,16.30
2023-04-29T09:11:37.229Z,15.45
2023-04-29T09:14:05.812Z,14.48
2023-04-29T09:16:37.731Z,15.75
2023-04-29T09:19:06.369Z,14.02
2023-04-29T09:21:35.686Z,11.52
2023-04-29T09:24:04.436Z,15.73
2023-04-29T09:26:43.622Z,13.25
2023-04-29T09:29:16.329Z,14.88
2023-04-29T09:34:14.768Z,12.57
2023-04-29T09:36:59.204Z,12.63
2023-04-29T09:39:27.695Z,12.63
2023-04-29T09:41:56.282Z,10.82
2023-04-29T09:44:36.127Z,16.23
2023-04-29T09:47:07.062Z,10.52
2023-04-29T09:49:41.440Z,14.95
2023-04-29T09:52:14.146Z,16.17
2023-04-29T09:54:43.651Z,14.27
2023-04-29T09:57:13.191Z,17.45
2023-04-29T09:59:42.222Z,13.88
2023-04-29T10:02:18.419Z,14.10
2023-04-29T10:04:57.957Z,10.90
2023-04-29T10:07:27.191Z,12.98
2023-04-29T10:09:55.626Z,18.45
2023-04-29T10:12:24.508Z,11.52
2023-04-29T10:15:04.302Z,9.75
2023-04-29T10:17:47.508Z,9.82
2023-04-29T10:20:22.898Z,14.85
2023-04-29T10:22:56.957Z,13.30
2023-04-29T10:25:28.473Z,11.75
2023-04-29T10:27:57.302Z,14.20
2023-04-29T10:30:25.810Z,12.68
2023-04-29T10:32:55.383Z,11.63
2023-04-29T10:35:25.921Z,17.67
2023-04-29T10:37:54.888Z,15.10
2023-04-29T10:40:43.060Z,18.45
2023-04-29T10:43:11.880Z,12.27
2023-04-29T10:45:41.004Z,17.50
2023-04-29T10:48:13.886Z,19.95
2023-04-29T10:51:01.666Z,15.93
2023-04-29T10:53:30.733Z,12.88
2023-04-29T10:56:05.578Z,14.73
2023-04-29T10:58:39.838Z,15.93
2023-04-29T11:01:08.688Z,18.27
2023-04-29T11:04:01.202Z,16.55
2023-04-29T11:06:54.488Z,13.73
2023-04-29T11:09:26.813Z,18.27
2023-04-29T11:12:04.010Z,16.65
2023-04-29T11:14:44.103Z,19.92
2023-04-29T11:17:17.711Z,13.32
2023-04-29T11:19:52.080Z,14.60
2023-04-29T11:22:24.366Z,16.52
2023-04-29T11:24:57.741Z,17.73
2023-04-29T11:27:37.553Z,12.05
2023-04-29T11:30:07.785Z,19.95
2023-04-29T11:32:40.652Z,16.83
2023-04-29T11:35:17.625Z,19.85
2023-04-29T11:37:47.195Z,17.33
2023-04-29T11:40:17.205Z,19.85
2023-04-29T11:42:49.700Z,18.85
2023-04-29T11:45:19.261Z,22.10
2023-04-29T11:47:48.610Z,20.50
2023-04-29T11:50:20.141Z,17.58
2023-04-29T11:52:49.623Z,19.05
2023-04-29T11:55:19.270Z,19.23
2023-04-29T11:57:50.732Z,18.17
2023-04-29T12:00:19.611Z,18.50
2023-04-29T12:02:48.520Z,24.27
2023-04-29T12:05:19.508Z,18.65
2023-04-29T12:07:51.254Z,23.13
2023-04-29T12:10:21.492Z,18.10
2023-04-29T12:12:49.937Z,18.17
2023-04-29T12:15:18.534Z,17.30
2023-04-29T12:17:47.464Z,15.88
2023-04-29T12:20:16.135Z,19.40
2023-04-29T12:22:44.474Z,19.52
2023-04-29T12:25:13.149Z,17.52
2023-04-29T12:27:44.530Z,17.02
2023-04-29T12:30:13.591Z,22.35
2023-04-29T12:32:42.228Z,20.45
2023-04-29T12:35:18.135Z,20.95
2023-04-29T12:37:51.069Z,23.00
2023-04-29T12:40:20.974Z,18.40
2023-04-29T12:42:49.497Z,19.08
2023-04-29T12:45:32.264Z,15.50
2023-04-29T12:48:01.548Z,18.00
2023-04-29T12:50:34.693Z,15.75
2023-04-29T12:53:07.661Z,17.13
2023-04-29T12:55:37.536Z,15.55
2023-04-29T12:58:06.176Z,21.75
2023-04-29T13:00:35.489Z,16.73
2023-04-29T13:03:04.679Z,17.05
2023-04-29T13:05:33.691Z,14.18
2023-04-29T13:08:02.291Z,16.27
2023-04-29T13:10:31.341Z,18.48
2023-04-29T13:13:00.099Z,17.90
2023-04-29T13:15:28.826Z,18.52
2023-04-29T13:17:59.060Z,17.52
2023-04-29T13:20:28.244Z,14.68
2023-04-29T13:22:56.720Z,17.90
2023-04-29T13:25:25.421Z,16.80
2023-04-29T13:27:53.765Z,14.88
2023-04-29T13:30:22.454Z,15.65
2023-04-29T13:32:55.935Z,16.42
2023-04-29T13:35:27.617Z,13.35
2023-04-29T13:37:56.139Z,13.35
2023-04-29T13:40:27.856Z,17.13
2023-04-29T13:43:04.896Z,17.00
2023-04-29T13:45:41.189Z,16.17
2023-04-29T13:48:32.436Z,17.45
2023-04-29T13:54:10.632Z,18.65
2023-04-29T13:59:37.259Z,15.18
2023-04-29T14:04:13.281Z,22.50
2023-04-29T14:06:44.366Z,17.13
2023-04-29T14:09:12.885Z,17.73
2023-04-29T14:11:41.900Z,15.32
2023-04-29T14:14:10.267Z,19.70
2023-04-29T14:16:39.118Z,14.82
2023-04-29T14:19:07.980Z,16.63
2023-04-29T14:21:36.769Z,19.30
2023-04-29T14:24:05.267Z,16.67
2023-04-29T14:26:34.140Z,14.15
2023-04-29T14:29:02.522Z,12.18
2023-04-29T14:31:35.663Z,14.73
2023-04-29T14:34:04.268Z,19.02
2023-04-29T14:36:33.000Z,16.80
2023-04-29T14:39:01.334Z,19.00
2023-04-29T14:41:29.932Z,20.17
2023-04-29T14:43:58.338Z,15.45
2023-04-29T14:46:29.228Z,11.63
2023-04-29T14:48:57.593Z,13.68
2023-04-29T14:51:27.498Z,15.23
2023-04-29T14:53:55.956Z,15.45
2023-04-29T14:56:24.707Z,14.13
2023-04-29T14:58:53.075Z,15.82
2023-04-29T15:01:21.841Z,15.60
2023-04-29T15:03:50.229Z,14.93
2023-04-29T15:06:18.962Z,16.30
2023-04-29T15:08:47.303Z,16.85
2023-04-29T15:11:16.041Z,16.73
2023-04-29T15:13:44.425Z,15.82
2023-04-29T15:16:13.102Z,14.88
2023-04-29T15:18:44.921Z,15.80
2023-04-29T15:21:14.406Z,17.98
2023-04-29T15:23:42.724Z,16.60
2023-04-29T15:26:11.370Z,15.50
2023-04-29T15:28:39.818Z,14.23
2023-04-29T15:31:08.466Z,18.77
2023-04-29T15:33:36.937Z,18.15
2023-04-29T15:36:07.136Z,16.92
2023-04-29T15:38:35.458Z,13.90
2023-04-29T15:41:04.186Z,13.90
2023-04-29T15:43:33.413Z,15.93
2023-04-29T15:46:02.051Z,15.43
2023-04-29T15:48:30.381Z,18.70
2023-04-29T15:50:59.034Z,15.40
2023-04-29T15:53:27.373Z,22.73
2023-04-29T15:55:56.225Z,13.70
2023-04-29T15:58:24.616Z,12.00
2023-04-29T16:00:53.343Z,14.68
2023-04-29T16:03:21.742Z,15.68
2023-04-29T16:05:51.137Z,15.02
2023-04-29T16:08:19.529Z,18.67
2023-04-29T16:10:49.872Z,14.32
2023-04-29T16:13:18.612Z,14.35
2023-04-29T16:15:47.348Z,15.32
2023-04-29T16:18:17.924Z,10.93
2023-04-29T16:20:46.784Z,12.52
2023-04-29T16:23:15.206Z,11.38
2023-04-29T16:25:43.995Z,9.75
2023-04-29T16:28:12.500Z,7.97
2023-04-29T16:30:41.384Z,8.85
2023-04-29T16:33:09.960Z,10.32
2023-04-29T16:35:39.035Z,10.50
2023-04-29T16:38:07.495Z,11.38
2023-04-29T16:40:36.865Z,10.20
2023-04-29T16:43:05.338Z,10.68
2023-04-29T16:45:34.185Z,10.13
2023-04-29T16:48:03.314Z,9.18
2023-04-29T16:50:32.247Z,7.45
2023-04-29T16:53:01.301Z,12.80
2023-04-29T16:55:33.097Z,12.15
2023-04-29T16:58:01.597Z,8.57
2023-04-29T17:00:30.511Z,12.60
2023-04-29T17:02:59.031Z,10.15
2023-04-29T17:05:28.058Z,10.15
2023-04-29T17:07:56.652Z,12.02
2023-04-29T17:10:25.462Z,12.70
2023-04-29T17:12:54.015Z,10.60
2023-04-29T17:15:22.925Z,9.90
2023-04-29T17:17:51.574Z,10.52
2023-04-29T17:20:20.726Z,10.73
2023-04-29T17:22:49.105Z,16.25
2023-04-29T17:25:18.282Z,10.95
2023-04-29T17:27:46.809Z,20.92
2023-04-29T17:30:15.689Z,16.15
2023-04-29T17:32:44.673Z,12.68
2023-04-29T17:35:13.467Z,16.30
2023-04-29T17:37:41.930Z,15.60
2023-04-29T17:40:11.636Z,22.20
2023-04-29T17:42:40.540Z,16.42
2023-04-29T17:45:10.504Z,17.73
2023-04-29T17:47:38.905Z,20.27
2023-04-29T17:50:08.492Z,15.15
2023-04-29T17:52:37.000Z,19.60
2023-04-29T17:55:06.518Z,16.92
2023-04-29T17:57:35.006Z,20.98
2023-04-29T18:00:05.706Z,18.98
2023-04-29T18:02:34.956Z,17.38
2023-04-29T18:05:04.317Z,13.60
2023-04-29T18:07:32.883Z,13.13
2023-04-29T18:10:01.681Z,14.75
2023-04-29T18:12:30.182Z,16.15
2023-04-29T18:14:58.961Z,13.20
2023-04-29T18:17:27.615Z,15.75
2023-04-29T18:19:56.709Z,18.30
2023-04-29T18:22:25.401Z,16.98
2023-04-29T18:24:54.231Z,13.85
2023-04-29T18:27:22.602Z,19.45
2023-04-29T18:29:51.635Z,19.70
2023-04-29T18:32:20.329Z,15.60
2023-04-29T18:34:49.212Z,21.40
2023-04-29T18:37:17.677Z,17.10
2023-04-29T18:39:46.413Z,21.27
2023-04-29T18:42:14.840Z,19.50
2023-04-29T18:44:43.874Z,18.35
2023-04-29T18:47:12.292Z,21.20
2023-04-29T18:49:41.304Z,18.50
2023-04-29T18:52:09.712Z,23.45
2023-04-29T18:54:38.496Z,26.17
2023-04-29T18:57:07.125Z,18.33
2023-04-29T18:59:37.905Z,21.25
2023-04-29T19:02:06.764Z,23.02
2023-04-29T19:04:36.004Z,21.88
2023-04-29T19:07:06.430Z,23.40
2023-04-29T19:09:35.182Z,25.80
2023-04-29T19:12:05.465Z,20.08
2023-04-29T19:14:34.439Z,24.80
2023-04-29T19:17:02.873Z,27.35
2023-04-29T19:19:31.688Z,27.60
2023-04-29T19:22:01.351Z,24.73
2023-04-29T19:24:29.998Z,26.08
2023-04-29T19:26:58.383Z,24.80
2023-04-29T19:29:27.173Z,26.08
2023-04-29T19:31:55.701Z,23.55
2023-04-29T19:34:24.649Z,22.23
2023-04-29T19:36:53.254Z,31.65
2023-04-29T19:39:21.970Z,23.17
2023-04-29T19:41:50.359Z,28.10
2023-04-29T19:44:19.184Z,29.30
2023-04-29T19:46:51.764Z,29.23
2023-04-29T19:49:20.812Z,25.90
2023-04-29T19:51:50.644Z,26.08
2023-04-29T19:54:19.435Z,28.60
2023-04-29T19:56:47.900Z,29.60
2023-04-29T19:59:17.073Z,31.63
2023-04-29T20:01:45.605Z,26.67
2023-04-29T20:04:14.500Z,25.15
2023-04-29T20:06:43.065Z,25.77
2023-04-29T20:09:11.996Z,25.65
2023-04-29T20:11:40.468Z,24.92
2023-04-29T20:14:09.170Z,22.55
2023-04-29T20:16:37.523Z,23.50
2023-04-29T20:19:06.885Z,24.63
2023-04-29T20:21:35.523Z,18.88
2023-04-29T20:24:04.894Z,21.90
2023-04-29T20:26:33.518Z,18.52
2023-04-29T20:29:02.217Z,21.15
2023-04-29T20:31:30.664Z,22.35
2023-04-29T20:34:00.526Z,24.00
2023-04-29T20:36:28.891Z,23.50
2023-04-29T20:38:57.674Z,27.85
2023-04-29T20:41:29.369Z,27.70
2023-04-29T20:43:59.122Z,23.65
2023-04-29T20:46:29.305Z,21.17
2023-04-29T20:48:58.033Z,25.83
2023-04-29T20:51:27.040Z,33.50
2023-04-29T20:53:55.798Z,23.92
2023-04-29T20:56:24.741Z,20.88
2023-04-29T20:58:53.404Z,24.13
2023-04-29T21:01:21.864Z,21.02
2023-04-29T21:03:50.966Z,20.83
2023-04-29T21:06:19.672Z,20.13
2023-04-29T21:08:48.474Z,18.45
2023-04-29T21:11:16.798Z,16.45
2023-04-29T21:13:50.646Z,14.80
2023-04-29T21:16:19.716Z,18.00
2023-04-29T21:18:48.545Z,16.90
2023-04-29T21:21:16.916Z,16.83
2023-04-29T21:23:45.723Z,14.38
2023-04-29T21:26:15.287Z,9.40
2023-04-29T21:28:44.115Z,22.08
2023-04-29T21:31:16.411Z,16.45
2023-04-29T21:33:45.522Z,18.05
2023-04-29T21:36:14.126Z,17.13
2023-04-29T21:38:46.094Z,12.80
2023-04-29T21:41:27.611Z,13.05
2023-04-29T21:43:58.708Z,18.38
2023-04-29T21:46:29.989Z,15.15
2023-04-29T21:48:58.702Z,15.98
2023-04-29T21:51:27.237Z,12.23
2023-04-29T21:53:56.052Z,12.75
2023-04-29T21:56:24.769Z,17.20
2023-04-29T21:58:53.842Z,15.25
2023-04-29T22:01:40.679Z,16.27
2023-04-29T22:04:09.424Z,13.18
2023-04-29T22:06:37.857Z,17.67
2023-04-29T22:09:09.445Z,15.70
2023-04-29T22:11:37.837Z,13.07
2023-04-29T22:14:06.815Z,12.95
2023-04-29T22:16:36.155Z,16.63
2023-04-29T22:19:05.075Z,14.45
2023-04-29T22:21:33.913Z,14.23
2023-04-29T22:24:02.881Z,14.65
2023-04-29T22:26:31.324Z,18.65
2023-04-29T22:28:59.978Z,15.25
2023-04-29T22:31:28.407Z,17.92
2023-04-29T22:33:57.181Z,13.00
2023-04-29T22:36:25.532Z,13.63
2023-04-29T22:38:54.177Z,11.45
2023-04-29T22:41:22.528Z,13.48
2023-04-29T22:43:57.695Z,14.85
2023-04-29T22:46:26.394Z,12.05
2023-04-29T22:48:55.247Z,14.15
2023-04-29T22:51:23.607Z,13.52
2023-04-29T22:53:52.520Z,9.65
2023-04-29T22:56:21.119Z,10.27
2023-04-29T22:58:50.252Z,9.60
2023-04-29T23:01:18.558Z,12.75
2023-04-29T23:03:47.318Z,12.27
2023-04-29T23:06:15.653Z,18.48
2023-04-29T23:08:44.815Z,15.88
2023-04-29T23:11:13.462Z,11.98
2023-04-29T23:13:42.133Z,14.20
2023-04-29T23:16:11.124Z,10.68
2023-04-29T23:18:39.945Z,11.05
2023-04-29T23:21:08.302Z,12.88
2023-04-29T23:23:36.928Z,13.60
2023-04-29T23:26:05.505Z,14.13
2023-04-29T23:28:34.389Z,15.77
2023-04-29T23:31:02.805Z,15.82
2023-04-29T23:33:31.789Z,14.25
2023-04-29T23:36:00.138Z,13.02
2023-04-29T23:38:29.061Z,15.98
2023-04-29T23:40:57.471Z,16.55
2023-04-29T23:43:26.192Z,14.15
2023-04-29T23:45:54.500Z,15.48
2023-04-29T23:48:23.086Z,11.68
2023-04-29T23:50:51.377Z,13.30
2023-04-29T23:53:19.976Z,16.13
2023-04-29T23:55:49.848Z,16.77
2023-04-29T23:58:18.431Z,14.50
